Time;durP1;ratioP1;P1;durP2;ratioP2;P2;SDS_P1;SDS_P2;PMS_P1;PMS_P2;Temp;Humidity;BMP_temperature;BMP_pressure;BME280_temperature;BME280_humidity;BME280_pressure;Samples;Min_cycle;Max_cycle;Signal;HPM_P1;HPM_P2
2021/12/15 00:01:36;;;;;;;51.40;29.52;;;;;;;;;;5089205;27;20505;-74
2021/12/15 00:04:05;;;;;;;51.53;29.13;;;;;;;;;;5104821;27;20051;-64
2021/12/15 00:06:32;;;;;;;52.22;28.52;;;;;;;;;;5109843;27;20070;-64
2021/12/15 00:09:03;;;;;;;47.90;31.02;;;;;;;;;;5085170;27;20558;-74
2021/12/15 00:11:35;;;;;;;52.67;30.33;;;;;;;;;;5109088;27;20066;-69
2021/12/15 00:14:13;;;;;;;53.38;30.13;;;;;;;;;;5088829;27;20047;-64
2021/12/15 00:16:40;;;;;;;56.30;31.33;;;;;;;;;;5093202;27;20051;-69
2021/12/15 00:19:07;;;;;;;51.95;30.90;;;;;;;;;;5119630;27;20550;-68
2021/12/15 00:21:33;;;;;;;53.42;31.02;;;;;;;;;;5121367;27;20108;-69
2021/12/15 00:24:03;;;;;;;52.13;30.15;;;;;;;;;;5114421;27;20053;-68
2021/12/15 00:26:29;;;;;;;50.72;30.77;;;;;;;;;;5129474;27;20712;-69
2021/12/15 00:28:55;;;;;;;57.65;31.88;;;;;;;;;;5096280;27;20113;-69
2021/12/15 00:31:21;;;;;;;61.22;33.08;;;;;;;;;;5094244;27;20373;-75
2021/12/15 00:33:48;;;;;;;60.13;32.13;;;;;;;;;;5111846;27;20052;-74
2021/12/15 00:36:15;;;;;;;53.45;32.00;;;;;;;;;;5121555;27;20091;-75
2021/12/15 00:38:42;;;;;;;63.58;33.05;;;;;;;;;;5078438;27;20140;-77
2021/12/15 00:41:10;;;;;;;64.00;31.20;;;;;;;;;;5116499;27;20500;-74
2021/12/15 00:43:37;;;;;;;56.70;32.72;;;;;;;;;;5115867;27;20500;-72
2021/12/15 00:46:04;;;;;;;60.47;32.58;;;;;;;;;;5100626;27;20541;-69
2021/12/15 00:48:30;;;;;;;60.63;31.70;;;;;;;;;;5115299;27;20074;-71
2021/12/15 00:50:57;;;;;;;65.60;32.30;;;;;;;;;;5114901;27;20064;-68
2021/12/15 00:53:23;;;;;;;68.05;33.28;;;;;;;;;;5103299;27;20046;-71
2021/12/15 00:55:50;;;;;;;66.85;32.08;;;;;;;;;;5122755;27;20095;-72
2021/12/15 00:58:16;;;;;;;60.17;32.33;;;;;;;;;;5123137;27;20049;-69
2021/12/15 01:00:50;;;;;;;64.85;33.72;;;;;;;;;;5104346;27;20047;-75
2021/12/15 01:03:17;;;;;;;73.53;34.10;;;;;;;;;;5121679;27;20055;-71
2021/12/15 01:05:47;;;;;;;56.63;33.45;;;;;;;;;;5123280;27;20183;-76
2021/12/15 01:08:21;;;;;;;64.82;32.97;;;;;;;;;;5123253;27;20127;-71
2021/12/15 01:11:06;;;;;;;74.70;33.42;;;;;;;;;;5116981;27;20043;-77
2021/12/15 01:22:31;;;;;;;60.13;32.72;;;;;;;;;;5014312;28;20601;-73
2021/12/15 01:25:04;;;;;;;58.13;32.63;;;;;;;;;;5017163;28;20102;-77
2021/12/15 01:27:30;;;;;;;54.03;32.35;;;;;;;;;;5016590;28;20052;-66
2021/12/15 01:29:56;;;;;;;63.17;33.42;;;;;;;;;;5012428;28;20060;-67
2021/12/15 01:32:23;;;;;;;72.40;33.78;;;;;;;;;;5031318;28;20398;-69
2021/12/15 01:34:49;;;;;;;61.67;34.05;;;;;;;;;;5018004;28;20576;-74
2021/12/15 01:37:17;;;;;;;68.40;34.42;;;;;;;;;;5033579;28;20129;-68
2021/12/15 01:39:44;;;;;;;68.75;35.50;;;;;;;;;;5017454;28;20600;-71
2021/12/15 01:42:11;;;;;;;63.20;35.38;;;;;;;;;;5012663;28;20557;-74
2021/12/15 01:47:22;;;;;;;67.47;34.35;;;;;;;;;;5033185;28;20140;-70
2021/12/15 01:49:52;;;;;;;64.13;34.90;;;;;;;;;;5061815;27;20473;-72
2021/12/15 01:52:32;;;;;;;61.67;35.45;;;;;;;;;;5097592;27;20062;-76
2021/12/15 01:55:26;;;;;;;62.75;35.38;;;;;;;;;;5112403;27;20050;-68
2021/12/15 01:57:53;;;;;;;57.95;35.38;;;;;;;;;;5109155;27;20898;-71
2021/12/15 02:00:34;;;;;;;68.45;37.00;;;;;;;;;;5097170;27;20108;-72
2021/12/15 02:03:01;;;;;;;63.10;36.33;;;;;;;;;;5110763;27;20423;-72
2021/12/15 02:05:29;;;;;;;67.25;37.17;;;;;;;;;;5094138;27;20055;-71
2021/12/15 02:07:55;;;;;;;63.60;37.85;;;;;;;;;;5095094;27;20051;-74
2021/12/15 02:10:25;;;;;;;65.50;37.33;;;;;;;;;;5110594;27;20056;-75
2021/12/15 02:12:52;;;;;;;69.22;37.25;;;;;;;;;;5091830;27;20198;-80
2021/12/15 02:15:33;;;;;;;61.70;36.35;;;;;;;;;;5113226;27;20195;-69
2021/12/15 02:18:01;;;;;;;64.70;37.33;;;;;;;;;;5107824;27;20441;-70
2021/12/15 02:20:53;;;;;;;64.78;37.42;;;;;;;;;;5116873;27;20537;-74
2021/12/15 02:23:25;;;;;;;61.50;36.47;;;;;;;;;;5112899;27;20043;-73
2021/12/15 02:25:52;;;;;;;64.65;36.10;;;;;;;;;;5112730;27;20099;-75
2021/12/15 02:28:18;;;;;;;62.13;36.10;;;;;;;;;;5095241;27;20047;-71
2021/12/15 02:31:00;;;;;;;61.95;35.58;;;;;;;;;;5093855;27;20055;-78
2021/12/15 02:38:58;;;;;;;56.30;31.67;;;;;;;;;;5114828;27;20043;-66
2021/12/15 02:41:26;;;;;;;57.97;32.20;;;;;;;;;;5091743;27;20048;-67
2021/12/15 02:43:55;;;;;;;56.25;33.40;;;;;;;;;;5104859;27;20043;-72
2021/12/15 02:46:22;;;;;;;51.63;30.95;;;;;;;;;;5090768;27;20075;-70
2021/12/15 02:48:49;;;;;;;51.88;29.63;;;;;;;;;;5096914;27;20088;-73
2021/12/15 02:51:17;;;;;;;48.08;28.95;;;;;;;;;;5078102;27;20050;-69
2021/12/15 02:53:43;;;;;;;48.83;29.15;;;;;;;;;;5114943;27;20059;-71
2021/12/15 02:56:09;;;;;;;52.58;28.88;;;;;;;;;;5093228;27;20154;-72
2021/12/15 02:58:38;;;;;;;45.83;27.00;;;;;;;;;;5074822;27;20055;-71
2021/12/15 03:01:18;;;;;;;44.92;26.83;;;;;;;;;;5091136;27;20066;-70
2021/12/15 03:06:31;;;;;;;46.50;24.48;;;;;;;;;;5114648;27;20055;-75
2021/12/15 03:09:13;;;;;;;41.30;24.65;;;;;;;;;;5090325;27;20522;-71
2021/12/15 03:17:08;;;;;;;44.78;23.77;;;;;;;;;;5089859;27;20749;-70
2021/12/15 03:19:35;;;;;;;38.53;21.85;;;;;;;;;;5110939;27;20047;-71
2021/12/15 03:22:02;;;;;;;40.08;21.35;;;;;;;;;;5109642;27;20047;-71
2021/12/15 03:24:28;;;;;;;39.05;21.73;;;;;;;;;;5114687;27;20047;-76
2021/12/15 03:27:13;;;;;;;39.83;20.33;;;;;;;;;;5112254;27;20054;-68
2021/12/15 03:37:51;;;;;;;41.92;23.08;;;;;;;;;;5112382;27;20600;-72
2021/12/15 03:40:26;;;;;;;42.78;22.73;;;;;;;;;;5109223;27;20047;-73
2021/12/15 03:43:06;;;;;;;41.70;23.05;;;;;;;;;;5110099;27;20505;-70
2021/12/15 03:45:54;;;;;;;41.42;23.27;;;;;;;;;;5093671;27;21250;-71
2021/12/15 03:48:30;;;;;;;50.90;25.65;;;;;;;;;;5091054;27;20101;-72
2021/12/15 03:50:56;;;;;;;47.20;24.92;;;;;;;;;;5110916;27;20046;-66
2021/12/15 03:53:24;;;;;;;43.60;23.05;;;;;;;;;;5089657;27;20051;-73
2021/12/15 03:55:52;;;;;;;52.65;24.58;;;;;;;;;;5116241;27;20047;-78
2021/12/15 03:58:22;;;;;;;46.33;24.90;;;;;;;;;;5112288;27;20054;-74
2021/12/15 04:01:15;;;;;;;49.97;25.52;;;;;;;;;;5106658;27;20039;-77
2021/12/15 04:03:45;;;;;;;51.20;25.98;;;;;;;;;;5107023;27;20111;-74
2021/12/15 04:06:19;;;;;;;50.20;25.27;;;;;;;;;;5074162;27;20055;-77
2021/12/15 04:08:47;;;;;;;55.03;27.15;;;;;;;;;;5110884;27;20097;-70
2021/12/15 04:11:16;;;;;;;53.65;26.13;;;;;;;;;;5093074;27;20058;-69
2021/12/15 04:13:46;;;;;;;46.03;24.45;;;;;;;;;;5105825;27;20055;-74
2021/12/15 04:16:37;;;;;;;52.20;26.50;;;;;;;;;;5089176;27;20055;-78
2021/12/15 04:19:09;;;;;;;50.70;24.90;;;;;;;;;;5114381;27;20496;-68
2021/12/15 04:21:37;;;;;;;57.08;26.50;;;;;;;;;;5115260;27;20181;-68
2021/12/15 04:24:03;;;;;;;52.00;25.85;;;;;;;;;;5089392;27;20048;-72
2021/12/15 04:26:30;;;;;;;47.25;25.13;;;;;;;;;;5107917;27;20050;-68
2021/12/15 04:28:56;;;;;;;50.00;23.50;;;;;;;;;;5093055;27;20621;-66
2021/12/15 04:31:27;;;;;;;48.55;25.20;;;;;;;;;;5111956;27;20100;-72
2021/12/15 04:33:57;;;;;;;52.05;25.52;;;;;;;;;;5109432;27;20048;-76
2021/12/15 04:36:28;;;;;;;52.78;26.73;;;;;;;;;;5116476;27;20161;-68
2021/12/15 04:38:57;;;;;;;50.78;25.38;;;;;;;;;;5112311;27;20134;-77
2021/12/15 04:41:24;;;;;;;46.38;25.42;;;;;;;;;;5095942;27;20412;-69
2021/12/15 04:43:57;;;;;;;53.40;25.33;;;;;;;;;;5105257;27;20393;-71
2021/12/15 04:46:34;;;;;;;49.35;24.70;;;;;;;;;;5096069;27;20102;-68
2021/12/15 04:49:02;;;;;;;56.20;25.48;;;;;;;;;;5131699;27;20047;-73
2021/12/15 04:51:30;;;;;;;47.80;25.00;;;;;;;;;;5079704;27;20051;-69
2021/12/15 04:53:57;;;;;;;50.92;24.67;;;;;;;;;;5111358;27;20047;-75
2021/12/15 04:56:25;;;;;;;51.88;25.10;;;;;;;;;;5110062;27;20580;-70
2021/12/15 04:58:54;;;;;;;51.20;23.65;;;;;;;;;;5114781;27;20568;-76
2021/12/15 05:01:20;;;;;;;44.13;23.95;;;;;;;;;;5115667;27;20199;-75
2021/12/15 05:03:47;;;;;;;50.30;24.77;;;;;;;;;;5096735;27;20047;-76
2021/12/15 05:06:14;;;;;;;50.00;25.13;;;;;;;;;;5119151;27;20518;-73
2021/12/15 05:08:41;;;;;;;50.50;25.63;;;;;;;;;;5095305;27;20051;-75
2021/12/15 05:11:10;;;;;;;53.15;24.10;;;;;;;;;;5095337;27;20615;-69
2021/12/15 05:13:37;;;;;;;49.40;25.38;;;;;;;;;;5111557;27;20047;-72
2021/12/15 05:16:04;;;;;;;41.03;23.10;;;;;;;;;;5114694;27;20050;-76
2021/12/15 05:18:31;;;;;;;46.60;23.85;;;;;;;;;;5096420;27;20056;-69
2021/12/15 05:20:59;;;;;;;51.92;23.35;;;;;;;;;;5114610;27;20051;-70
2021/12/15 05:23:29;;;;;;;49.53;24.90;;;;;;;;;;5097186;27;20059;-76
2021/12/15 05:25:57;;;;;;;50.20;24.58;;;;;;;;;;5093779;27;20493;-72
2021/12/15 05:28:23;;;;;;;48.22;23.38;;;;;;;;;;5114668;27;20044;-69
2021/12/15 05:30:50;;;;;;;47.33;24.25;;;;;;;;;;5117640;27;20131;-76
2021/12/15 05:33:16;;;;;;;53.28;24.23;;;;;;;;;;5097824;27;20561;-70
2021/12/15 05:35:43;;;;;;;48.22;23.33;;;;;;;;;;5113405;27;20075;-79
2021/12/15 05:38:10;;;;;;;46.92;23.00;;;;;;;;;;5101425;27;20056;-68
2021/12/15 05:40:37;;;;;;;44.13;21.88;;;;;;;;;;5097994;27;20182;-67
2021/12/15 05:43:05;;;;;;;45.38;22.42;;;;;;;;;;5118417;27;20047;-69
2021/12/15 05:45:37;;;;;;;40.75;20.85;;;;;;;;;;5101615;27;20437;-68
2021/12/15 05:48:05;;;;;;;40.90;21.27;;;;;;;;;;5122887;27;20512;-72
2021/12/15 05:50:33;;;;;;;47.53;20.70;;;;;;;;;;5125002;27;20059;-69
2021/12/15 05:53:01;;;;;;;42.75;20.40;;;;;;;;;;5103682;27;20128;-69
2021/12/15 05:55:30;;;;;;;42.35;18.85;;;;;;;;;;5127915;27;20058;-72
2021/12/15 05:57:56;;;;;;;37.83;20.08;;;;;;;;;;5109932;27;20050;-69
2021/12/15 06:00:26;;;;;;;37.78;19.65;;;;;;;;;;5112276;27;20407;-77
2021/12/15 06:02:57;;;;;;;38.63;20.15;;;;;;;;;;5128642;27;20146;-70
2021/12/15 06:05:25;;;;;;;35.95;19.27;;;;;;;;;;5126211;27;20047;-68
2021/12/15 06:07:51;;;;;;;32.92;17.83;;;;;;;;;;5127864;27;20175;-69
2021/12/15 06:10:23;;;;;;;33.65;16.98;;;;;;;;;;5120368;27;20078;-68
2021/12/15 06:12:50;;;;;;;33.22;16.00;;;;;;;;;;5124873;27;20507;-70
2021/12/15 06:15:24;;;;;;;28.40;16.00;;;;;;;;;;5130499;27;20055;-71
2021/12/15 06:17:56;;;;;;;32.67;16.55;;;;;;;;;;5134013;27;20047;-74
2021/12/15 06:20:23;;;;;;;33.63;15.93;;;;;;;;;;5126698;27;20036;-71
2021/12/15 06:22:52;;;;;;;29.23;14.50;;;;;;;;;;5088446;27;20054;-69
2021/12/15 06:25:19;;;;;;;29.17;14.65;;;;;;;;;;5119405;27;20047;-68
2021/12/15 06:27:46;;;;;;;28.65;15.30;;;;;;;;;;5087520;27;20087;-68
2021/12/15 06:30:13;;;;;;;38.40;15.63;;;;;;;;;;5118530;27;20055;-73
2021/12/15 06:32:40;;;;;;;27.15;14.52;;;;;;;;;;5082748;27;20054;-74
2021/12/15 06:35:06;;;;;;;25.10;13.65;;;;;;;;;;5125577;27;20053;-78
2021/12/15 06:37:33;;;;;;;26.98;13.10;;;;;;;;;;5104223;27;20145;-77
2021/12/15 06:39:59;;;;;;;22.17;12.02;;;;;;;;;;5119235;27;20575;-66
2021/12/15 06:42:25;;;;;;;21.30;12.05;;;;;;;;;;5101188;27;20055;-72
2021/12/15 06:44:52;;;;;;;24.63;11.32;;;;;;;;;;5093899;27;20078;-77
2021/12/15 06:47:46;;;;;;;19.88;10.00;;;;;;;;;;5099760;27;20050;-74
2021/12/15 06:58:24;;;;;;;25.05;11.15;;;;;;;;;;5115265;27;20065;-72
2021/12/15 07:00:53;;;;;;;21.08;9.73;;;;;;;;;;5113948;27;20054;-79
2021/12/15 07:03:21;;;;;;;26.52;10.90;;;;;;;;;;5108898;27;20050;-77
2021/12/15 07:05:49;;;;;;;18.10;9.00;;;;;;;;;;5118091;27;20055;-75
2021/12/15 07:08:16;;;;;;;33.78;11.32;;;;;;;;;;5097117;27;20047;-73
2021/12/15 07:10:49;;;;;;;22.42;9.57;;;;;;;;;;5114619;27;20717;-80
2021/12/15 07:13:16;;;;;;;24.00;8.85;;;;;;;;;;5074613;27;20062;-78
2021/12/15 07:15:44;;;;;;;14.25;8.23;;;;;;;;;;5114061;27;20075;-74
2021/12/15 07:18:12;;;;;;;15.30;8.75;;;;;;;;;;5103132;27;20352;-74
2021/12/15 07:20:47;;;;;;;21.00;8.70;;;;;;;;;;5106582;27;20059;-67
2021/12/15 07:23:20;;;;;;;17.15;8.52;;;;;;;;;;5092637;27;20679;-77
2021/12/15 07:25:49;;;;;;;17.58;8.10;;;;;;;;;;5090417;27;20059;-75
2021/12/15 07:28:18;;;;;;;19.38;9.07;;;;;;;;;;5095864;27;20419;-77
2021/12/15 07:30:47;;;;;;;21.55;7.20;;;;;;;;;;5118300;27;20070;-73
2021/12/15 07:33:14;;;;;;;18.00;7.57;;;;;;;;;;5123280;27;20725;-71
2021/12/15 07:35:41;;;;;;;21.67;7.97;;;;;;;;;;5132300;27;20062;-69
2021/12/15 07:38:08;;;;;;;17.80;8.15;;;;;;;;;;5108588;27;20176;-74
2021/12/15 07:40:35;;;;;;;19.85;8.15;;;;;;;;;;5118628;27;20475;-68
2021/12/15 07:43:13;;;;;;;15.80;8.40;;;;;;;;;;5095554;27;20055;-76
2021/12/15 07:45:46;;;;;;;24.52;7.63;;;;;;;;;;5092570;27;20061;-78
2021/12/15 07:48:16;;;;;;;15.95;7.75;;;;;;;;;;5106296;27;20059;-77
2021/12/15 07:50:45;;;;;;;12.20;7.68;;;;;;;;;;5121794;27;20093;-74
2021/12/15 07:53:13;;;;;;;15.45;7.70;;;;;;;;;;5114570;27;20051;-74
2021/12/15 07:55:40;;;;;;;16.90;7.57;;;;;;;;;;5103427;27;20161;-80
2021/12/15 07:58:08;;;;;;;13.93;7.03;;;;;;;;;;5115574;27;20067;-81
2021/12/15 08:00:36;;;;;;;22.05;6.75;;;;;;;;;;5100029;27;20580;-73
2021/12/15 08:03:04;;;;;;;15.10;6.10;;;;;;;;;;5107037;27;20062;-78
2021/12/15 08:05:30;;;;;;;13.68;7.35;;;;;;;;;;5101310;27;20071;-74
2021/12/15 08:07:56;;;;;;;11.85;5.95;;;;;;;;;;5089851;27;20400;-72
2021/12/15 08:10:23;;;;;;;13.43;6.30;;;;;;;;;;5116932;27;20142;-76
2021/12/15 08:12:50;;;;;;;14.65;6.05;;;;;;;;;;5096748;27;20050;-77
2021/12/15 08:15:17;;;;;;;14.27;6.00;;;;;;;;;;5101200;27;20558;-75
2021/12/15 08:17:50;;;;;;;12.30;5.97;;;;;;;;;;5098642;27;20053;-72
2021/12/15 08:20:23;;;;;;;13.57;5.95;;;;;;;;;;5117533;27;20060;-77
2021/12/15 08:22:50;;;;;;;12.70;6.10;;;;;;;;;;5090656;27;20082;-76
2021/12/15 08:25:17;;;;;;;14.93;7.03;;;;;;;;;;5111946;27;20048;-76
2021/12/15 08:27:46;;;;;;;10.48;5.95;;;;;;;;;;5110173;27;20074;-74
2021/12/15 08:30:20;;;;;;;18.48;5.95;;;;;;;;;;5096941;27;20047;-73
2021/12/15 08:32:49;;;;;;;15.40;5.60;;;;;;;;;;5112897;27;20047;-77
2021/12/15 08:35:17;;;;;;;12.25;5.43;;;;;;;;;;5079813;27;20052;-75
2021/12/15 08:37:44;;;;;;;13.93;5.50;;;;;;;;;;5118050;27;20370;-71
2021/12/15 08:40:11;;;;;;;20.23;5.70;;;;;;;;;;5113272;27;20502;-77
2021/12/15 08:42:37;;;;;;;16.17;5.90;;;;;;;;;;5089713;27;20376;-71
2021/12/15 08:45:05;;;;;;;10.38;6.03;;;;;;;;;;5093575;27;20079;-71
2021/12/15 08:47:31;;;;;;;11.52;5.30;;;;;;;;;;5113057;27;20090;-78
2021/12/15 08:49:58;;;;;;;15.93;5.80;;;;;;;;;;5101427;27;20051;-72
2021/12/15 08:52:24;;;;;;;11.45;5.60;;;;;;;;;;5098505;27;20373;-74
2021/12/15 08:54:51;;;;;;;17.92;6.25;;;;;;;;;;5099845;27;20178;-73
2021/12/15 08:57:18;;;;;;;12.48;5.45;;;;;;;;;;5111667;27;20047;-75
2021/12/15 08:59:44;;;;;;;19.77;6.55;;;;;;;;;;5097465;27;20051;-72
2021/12/15 09:02:11;;;;;;;13.75;6.25;;;;;;;;;;5113927;27;20142;-79
2021/12/15 09:04:37;;;;;;;12.15;5.57;;;;;;;;;;5121293;27;20066;-70
2021/12/15 09:07:05;;;;;;;20.15;6.78;;;;;;;;;;5081574;27;20098;-73
2021/12/15 09:09:32;;;;;;;12.23;6.75;;;;;;;;;;5117543;27;20061;-74
2021/12/15 09:11:59;;;;;;;21.95;6.80;;;;;;;;;;5112594;27;20061;-78
2021/12/15 09:14:25;;;;;;;22.33;7.70;;;;;;;;;;5115848;27;20122;-69
2021/12/15 09:16:54;;;;;;;18.02;6.68;;;;;;;;;;5115331;27;20043;-76
2021/12/15 09:19:20;;;;;;;23.15;7.10;;;;;;;;;;5098221;27;20488;-75
2021/12/15 09:21:50;;;;;;;21.20;8.05;;;;;;;;;;5097862;27;20059;-74
2021/12/15 09:24:18;;;;;;;15.75;7.90;;;;;;;;;;5080745;27;20051;-75
2021/12/15 09:26:44;;;;;;;15.90;8.07;;;;;;;;;;5101208;27;20046;-78
2021/12/15 09:29:11;;;;;;;15.40;8.05;;;;;;;;;;5119718;27;20111;-74
2021/12/15 09:31:39;;;;;;;16.25;8.85;;;;;;;;;;5119132;27;20060;-73
2021/12/15 09:34:08;;;;;;;15.90;9.05;;;;;;;;;;5082073;27;20527;-73
2021/12/15 09:36:34;;;;;;;21.00;8.63;;;;;;;;;;5119933;27;20146;-73
2021/12/15 09:39:11;;;;;;;19.10;9.05;;;;;;;;;;5114682;27;20134;-72
2021/12/15 09:41:38;;;;;;;17.20;8.40;;;;;;;;;;5091516;27;20609;-76
2021/12/15 09:44:12;;;;;;;15.75;9.23;;;;;;;;;;5075588;27;20063;-75
2021/12/15 09:47:07;;;;;;;19.30;9.15;;;;;;;;;;5097616;27;20066;-74
2021/12/15 10:06:02;;;;;;;15.50;9.48;;;;;;;;;;5114576;27;21278;-75
2021/12/15 10:19:46;;;;;;;21.67;10.98;;;;;;;;;;5116006;27;20229;-74
2021/12/15 10:22:37;;;;;;;18.42;9.63;;;;;;;;;;5091976;27;20705;-77
2021/12/15 10:25:07;;;;;;;25.27;11.15;;;;;;;;;;5080627;27;20051;-74
2021/12/15 10:27:38;;;;;;;18.38;10.63;;;;;;;;;;5122287;27;20686;-74
2021/12/15 10:30:07;;;;;;;22.08;10.43;;;;;;;;;;5120502;27;20146;-73
2021/12/15 10:32:37;;;;;;;17.35;11.10;;;;;;;;;;5098709;27;20060;-77
2021/12/15 10:35:27;;;;;;;17.33;10.85;;;;;;;;;;5118110;27;20076;-73
2021/12/15 10:38:33;;;;;;;22.33;10.68;;;;;;;;;;5122557;27;21106;-73
2021/12/15 10:41:19;;;;;;;22.42;11.25;;;;;;;;;;5060203;27;20455;-74
2021/12/15 10:44:04;;;;;;;21.88;12.00;;;;;;;;;;5107404;27;20042;-74
2021/12/15 10:46:40;;;;;;;22.92;11.60;;;;;;;;;;5118071;27;20161;-73
2021/12/15 10:49:19;;;;;;;24.35;12.30;;;;;;;;;;5079645;27;20079;-75
2021/12/15 10:51:55;;;;;;;23.50;12.93;;;;;;;;;;5095307;27;20062;-74
2021/12/15 10:54:28;;;;;;;19.20;11.05;;;;;;;;;;5110995;27;20231;-76
2021/12/15 10:57:00;;;;;;;22.98;12.45;;;;;;;;;;5090333;27;20100;-73
2021/12/15 10:59:33;;;;;;;23.10;12.13;;;;;;;;;;5108341;27;20475;-71
2021/12/15 11:02:12;;;;;;;21.90;12.10;;;;;;;;;;5073784;27;20052;-75
2021/12/15 11:04:47;;;;;;;21.27;11.75;;;;;;;;;;5093445;27;20068;-74
2021/12/15 11:07:22;;;;;;;19.08;11.35;;;;;;;;;;5112288;27;20177;-75
2021/12/15 11:10:17;;;;;;;19.92;11.68;;;;;;;;;;5111233;27;20051;-77
2021/12/15 11:12:53;;;;;;;22.13;11.38;;;;;;;;;;5092938;27;20074;-74
2021/12/15 11:15:22;;;;;;;21.90;10.88;;;;;;;;;;5116848;27;20044;-76
2021/12/15 11:17:52;;;;;;;16.48;10.40;;;;;;;;;;5109931;27;20138;-75
2021/12/15 11:20:18;;;;;;;19.02;11.18;;;;;;;;;;5120092;27;20562;-75
2021/12/15 11:22:48;;;;;;;18.17;10.73;;;;;;;;;;5112939;27;20173;-76
2021/12/15 11:25:37;;;;;;;14.05;9.68;;;;;;;;;;5110070;27;20050;-74
2021/12/15 11:28:20;;;;;;;16.90;10.25;;;;;;;;;;5114150;27;20057;-75
2021/12/15 11:30:55;;;;;;;15.45;9.43;;;;;;;;;;5115567;27;20066;-75
2021/12/15 11:33:32;;;;;;;15.30;9.70;;;;;;;;;;5111816;27;20051;-76
2021/12/15 11:36:01;;;;;;;13.52;8.93;;;;;;;;;;5092347;27;20134;-72
2021/12/15 11:38:30;;;;;;;15.70;10.10;;;;;;;;;;5110234;27;20058;-76
2021/12/15 11:40:56;;;;;;;13.65;9.50;;;;;;;;;;5107866;27;20131;-74
2021/12/15 11:43:41;;;;;;;18.52;11.32;;;;;;;;;;5102115;27;20400;-72
2021/12/15 11:46:32;;;;;;;13.07;9.25;;;;;;;;;;5107848;27;20091;-71
2021/12/15 11:49:07;;;;;;;14.93;9.95;;;;;;;;;;5109882;27;20042;-75
2021/12/15 11:51:39;;;;;;;;;;;;;;;;;;5092009;27;20051;-73
2021/12/15 11:54:21;;;;;;;17.77;10.18;;;;;;;;;;5102631;27;21688;-72
2021/12/15 11:57:29;;;;;;;17.80;12.25;;;;;;;;;;5107403;27;20044;-73
2021/12/15 12:00:12;;;;;;;16.75;10.65;;;;;;;;;;5106698;27;20047;-74
2021/12/15 12:02:46;;;;;;;16.52;10.75;;;;;;;;;;5105391;27;20052;-73
2021/12/15 12:05:19;;;;;;;17.52;10.55;;;;;;;;;;5093023;27;20066;-73
2021/12/15 12:07:57;;;;;;;20.60;11.07;;;;;;;;;;5111979;27;20055;-77
2021/12/15 12:10:31;;;;;;;18.17;10.10;;;;;;;;;;5106333;27;20151;-70
2021/12/15 12:13:10;;;;;;;18.35;11.15;;;;;;;;;;5088494;27;20054;-71
2021/12/15 12:15:46;;;;;;;16.08;10.00;;;;;;;;;;5106850;27;20171;-73
2021/12/15 12:18:22;;;;;;;20.48;10.55;;;;;;;;;;5092488;27;20175;-75
2021/12/15 12:20:54;;;;;;;18.52;9.73;;;;;;;;;;5113551;27;20091;-75
2021/12/15 12:23:27;;;;;;;17.40;11.13;;;;;;;;;;5104439;27;20138;-75
2021/12/15 12:26:01;;;;;;;16.85;10.68;;;;;;;;;;5111861;27;20046;-76
2021/12/15 12:28:31;;;;;;;14.80;10.57;;;;;;;;;;5073527;27;20543;-74
2021/12/15 12:31:04;;;;;;;19.10;10.50;;;;;;;;;;5105692;27;20098;-71
2021/12/15 12:33:31;;;;;;;19.48;10.80;;;;;;;;;;5115888;27;20595;-70
2021/12/15 12:36:14;;;;;;;22.50;11.15;;;;;;;;;;5118584;27;20067;-70
2021/12/15 12:38:49;;;;;;;20.42;10.95;;;;;;;;;;5088460;27;20051;-74
2021/12/15 12:41:21;;;;;;;16.50;10.60;;;;;;;;;;5111946;27;20047;-75
2021/12/15 12:43:58;;;;;;;26.35;12.15;;;;;;;;;;5113206;27;20146;-76
2021/12/15 12:46:48;;;;;;;18.33;10.43;;;;;;;;;;5113496;27;20057;-78
2021/12/15 13:00:30;;;;;;;25.05;13.48;;;;;;;;;;5123996;27;20062;-74
2021/12/15 13:03:12;;;;;;;23.38;14.75;;;;;;;;;;5120984;27;20145;-71
2021/12/15 13:05:45;;;;;;;26.05;13.02;;;;;;;;;;5115544;27;20138;-71
2021/12/15 13:08:38;;;;;;;23.63;14.70;;;;;;;;;;5125309;27;20452;-73
2021/12/15 13:11:22;;;;;;;24.13;14.20;;;;;;;;;;5114190;27;20699;-71
2021/12/15 13:14:03;;;;;;;21.00;12.02;;;;;;;;;;5076532;27;20048;-76
2021/12/15 13:16:41;;;;;;;22.67;14.13;;;;;;;;;;5098319;27;20086;-76
2021/12/15 13:19:22;;;;;;;19.48;12.88;;;;;;;;;;5113147;27;20066;-73
2021/12/15 13:31:01;;;;;;;22.65;12.63;;;;;;;;;;5098377;27;20056;-78
2021/12/15 13:33:31;;;;;;;21.63;12.77;;;;;;;;;;5111000;27;20093;-72
2021/12/15 13:36:05;;;;;;;28.70;16.70;;;;;;;;;;5113393;27;20067;-71
2021/12/15 13:38:55;;;;;;;15.30;10.70;;;;;;;;;;5093850;27;20055;-72
2021/12/15 13:44:16;;;;;;;21.85;11.25;;;;;;;;;;5076975;27;20060;-72
2021/12/15 13:46:53;;;;;;;17.10;10.85;;;;;;;;;;5100771;27;20050;-74
2021/12/15 13:49:41;;;;;;;17.35;12.15;;;;;;;;;;5115580;27;20058;-77
2021/12/15 13:52:32;;;;;;;17.63;11.15;;;;;;;;;;5118937;27;20503;-76
2021/12/15 13:55:01;;;;;;;17.33;11.82;;;;;;;;;;5081380;27;20051;-71
2021/12/15 13:57:34;;;;;;;21.13;12.80;;;;;;;;;;5116648;27;20069;-70
2021/12/15 14:00:11;;;;;;;23.10;13.93;;;;;;;;;;5097068;27;20685;-73
2021/12/15 14:02:42;;;;;;;22.38;13.63;;;;;;;;;;5110542;27;20882;-71
2021/12/15 14:05:16;;;;;;;24.05;12.80;;;;;;;;;;5115055;27;20334;-72
2021/12/15 14:07:49;;;;;;;27.02;14.35;;;;;;;;;;5125533;27;20928;-74
2021/12/15 14:10:17;;;;;;;23.35;14.05;;;;;;;;;;5122246;27;20058;-75
2021/12/15 14:12:46;;;;;;;27.75;13.68;;;;;;;;;;5118420;27;20047;-74
2021/12/15 14:15:36;;;;;;;23.92;14.70;;;;;;;;;;5096758;27;20051;-74
2021/12/15 14:18:20;;;;;;;25.02;14.32;;;;;;;;;;5119689;27;20657;-75
2021/12/15 14:21:14;;;;;;;23.17;13.40;;;;;;;;;;5115990;27;20409;-75
2021/12/15 14:23:47;;;;;;;28.10;13.13;;;;;;;;;;5075025;27;20945;-76
2021/12/15 14:26:18;;;;;;;31.65;14.65;;;;;;;;;;5113052;27;20406;-74
2021/12/15 14:28:48;;;;;;;21.35;13.70;;;;;;;;;;5115410;27;20100;-74
2021/12/15 14:31:23;;;;;;;25.33;13.40;;;;;;;;;;5093278;27;20055;-76
2021/12/15 14:33:57;;;;;;;25.48;14.80;;;;;;;;;;5088138;27;20147;-72
2021/12/15 14:36:26;;;;;;;20.80;13.63;;;;;;;;;;5074995;27;20079;-78
2021/12/15 14:38:57;;;;;;;26.45;13.52;;;;;;;;;;5105606;27;20054;-74
2021/12/15 14:41:30;;;;;;;18.88;12.57;;;;;;;;;;5095665;27;20047;-79
2021/12/15 14:44:05;;;;;;;20.77;12.50;;;;;;;;;;5093420;27;20476;-73
2021/12/15 14:46:34;;;;;;;22.55;13.38;;;;;;;;;;5094000;27;20103;-71
2021/12/15 14:49:23;;;;;;;16.75;11.95;;;;;;;;;;5095608;27;20063;-71
2021/12/15 14:51:53;;;;;;;17.98;11.93;;;;;;;;;;5111186;27;20042;-74
2021/12/15 14:54:22;;;;;;;18.65;11.48;;;;;;;;;;5092464;27;20047;-77
2021/12/15 14:56:56;;;;;;;19.85;11.82;;;;;;;;;;5092731;27;20546;-73
2021/12/15 14:59:27;;;;;;;17.88;12.13;;;;;;;;;;5104629;27;20141;-76
2021/12/15 15:02:02;;;;;;;17.98;11.70;;;;;;;;;;5108433;27;20066;-73
2021/12/15 15:04:29;;;;;;;17.55;11.18;;;;;;;;;;5089975;27;20056;-71
2021/12/15 15:06:58;;;;;;;19.88;11.07;;;;;;;;;;5109664;27;20047;-76
2021/12/15 15:09:33;;;;;;;19.17;10.57;;;;;;;;;;5094473;27;20437;-79
2021/12/15 15:12:08;;;;;;;23.95;12.90;;;;;;;;;;5115469;27;20075;-74
2021/12/15 15:15:06;;;;;;;18.95;11.93;;;;;;;;;;5110605;27;20507;-77
2021/12/15 15:17:50;;;;;;;16.95;10.93;;;;;;;;;;5100796;27;20059;-74
2021/12/15 15:20:22;;;;;;;18.63;11.90;;;;;;;;;;5093048;27;20039;-70
2021/12/15 15:22:51;;;;;;;18.48;11.90;;;;;;;;;;5087794;27;20052;-77
2021/12/15 15:25:21;;;;;;;21.13;12.73;;;;;;;;;;5091848;27;20047;-76
2021/12/15 15:27:56;;;;;;;19.77;12.82;;;;;;;;;;5091208;27;20055;-74
2021/12/15 15:30:28;;;;;;;23.60;13.95;;;;;;;;;;5108923;27;20514;-71
2021/12/15 15:32:58;;;;;;;27.08;14.90;;;;;;;;;;5072551;27;20064;-73
2021/12/15 15:35:54;;;;;;;23.70;14.85;;;;;;;;;;5097065;27;20058;-72
2021/12/15 15:38:23;;;;;;;24.08;15.40;;;;;;;;;;5076519;27;20050;-73
2021/12/15 15:40:54;;;;;;;28.45;16.25;;;;;;;;;;5089353;27;20088;-71
2021/12/15 15:43:43;;;;;;;24.23;14.52;;;;;;;;;;5107363;27;20052;-78
2021/12/15 15:46:22;;;;;;;25.45;14.45;;;;;;;;;;5110559;27;20100;-75
2021/12/15 15:48:50;;;;;;;26.80;15.13;;;;;;;;;;5113263;27;20302;-72
2021/12/15 15:51:22;;;;;;;28.65;15.10;;;;;;;;;;5117390;27;20449;-74
2021/12/15 15:54:00;;;;;;;26.10;15.10;;;;;;;;;;5115032;27;20490;-73
2021/12/15 15:56:29;;;;;;;25.63;14.88;;;;;;;;;;5112358;27;20126;-75
2021/12/15 15:59:00;;;;;;;26.63;13.70;;;;;;;;;;5108796;27;20044;-71
2021/12/15 16:01:28;;;;;;;30.10;14.05;;;;;;;;;;5090526;27;20043;-74
2021/12/15 16:03:57;;;;;;;23.42;14.15;;;;;;;;;;5089062;27;20054;-73
2021/12/15 16:06:25;;;;;;;26.02;14.18;;;;;;;;;;5101637;27;20081;-74
2021/12/15 16:08:56;;;;;;;23.73;14.15;;;;;;;;;;5113551;27;20506;-73
2021/12/15 16:11:26;;;;;;;24.95;13.95;;;;;;;;;;5109566;27;20058;-75
2021/12/15 16:13:54;;;;;;;22.23;15.00;;;;;;;;;;5106582;27;20051;-77
2021/12/15 16:16:44;;;;;;;22.95;15.45;;;;;;;;;;5121359;27;20055;-74
2021/12/15 16:19:14;;;;;;;27.27;15.73;;;;;;;;;;5082614;27;20055;-76
2021/12/15 16:24:17;;;;;;;34.30;16.52;;;;;;;;;;5099638;27;20076;-74